Time;durP1;ratioP1;P1;durP2;ratioP2;P2;SDS_P1;SDS_P2;PMS_P1;PMS_P2;Temp;Humidity;BMP_temperature;BMP_pressure;BME280_temperature;BME280_humidity;BME280_pressure;Samples;Min_cycle;Max_cycle;Signal;HPM_P1;HPM_P2
2022/04/14 00:04:32;;;;;;;25.75;14.02;;;;;;;8.98;100.00;101890.81;10428359;28;20112;-70
2022/04/14 00:09:35;;;;;;;29.92;13.82;;;;;;;8.93;100.00;101882.41;10421559;28;20061;-70
2022/04/14 00:14:36;;;;;;;26.38;13.23;;;;;;;8.89;100.00;101875.66;10385131;28;20030;-70
2022/04/14 00:19:36;;;;;;;28.08;14.95;;;;;;;8.85;100.00;101867.00;10386385;28;20088;-70
2022/04/14 00:24:37;;;;;;;26.83;14.30;;;;;;;8.84;100.00;101878.19;10387469;28;20041;-69
2022/04/14 00:29:38;;;;;;;30.77;15.57;;;;;;;8.86;100.00;101876.09;10391909;28;20042;-71
2022/04/14 00:34:38;;;;;;;27.92;15.10;;;;;;;8.92;100.00;101871.63;10394993;28;20065;-69
2022/04/14 00:39:39;;;;;;;29.77;17.25;;;;;;;8.97;100.00;101861.69;10394562;28;20046;-69
2022/04/14 00:44:39;;;;;;;25.30;15.63;;;;;;;8.88;100.00;101836.34;10393219;28;20049;-70
2022/04/14 00:49:40;;;;;;;26.98;14.95;;;;;;;8.95;100.00;101863.81;10394309;28;20037;-69
2022/04/14 00:54:40;;;;;;;31.63;15.73;;;;;;;8.93;100.00;101863.19;10395067;28;20030;-69
2022/04/14 00:59:41;;;;;;;26.48;15.27;;;;;;;8.93;100.00;101862.31;10394602;28;20022;-69
2022/04/14 01:04:42;;;;;;;29.55;14.90;;;;;;;8.99;100.00;101878.78;10391651;28;20061;-70
2022/04/14 01:09:42;;;;;;;27.83;14.40;;;;;;;9.00;100.00;101877.69;10373967;28;20026;-70
2022/04/14 01:14:43;;;;;;;26.33;14.02;;;;;;;8.99;100.00;101887.03;10391188;28;20096;-70
2022/04/14 01:19:43;;;;;;;25.02;13.95;;;;;;;8.97;100.00;101880.91;10393549;28;20461;-70
2022/04/14 01:24:44;;;;;;;25.83;13.48;;;;;;;8.87;100.00;101867.63;10393654;28;20062;-70
2022/04/14 01:29:46;;;;;;;20.75;11.75;;;;;;;8.78;100.00;101857.09;10392008;28;20026;-70
2022/04/14 01:34:46;;;;;;;25.27;12.23;;;;;;;8.69;100.00;101868.34;10391814;28;20078;-70
2022/04/14 01:39:47;;;;;;;25.90;14.10;;;;;;;8.64;100.00;101873.66;10374082;28;20113;-70
2022/04/14 01:44:48;;;;;;;24.10;14.15;;;;;;;8.69;100.00;101876.56;10389994;28;20037;-70
2022/04/14 01:49:49;;;;;;;25.23;14.85;;;;;;;8.68;100.00;101885.88;10391941;28;20032;-70
2022/04/14 01:54:49;;;;;;;28.42;13.73;;;;;;;8.63;100.00;101893.91;10392611;28;20033;-69
2022/04/14 01:59:50;;;;;;;31.92;15.18;;;;;;;8.59;100.00;101898.16;10392013;28;20037;-70
2022/04/14 02:04:51;;;;;;;31.90;18.65;;;;;;;8.60;100.00;101899.84;10391677;28;20030;-70
2022/04/14 02:09:51;;;;;;;34.00;17.42;;;;;;;8.69;100.00;101898.53;10390880;28;20061;-69
2022/04/14 02:14:52;;;;;;;32.58;17.60;;;;;;;8.67;100.00;101899.81;10389826;28;20030;-70
2022/04/14 02:19:53;;;;;;;28.95;18.15;;;;;;;8.64;100.00;101889.25;10390450;28;20053;-69
2022/04/14 02:24:53;;;;;;;38.35;18.30;;;;;;;8.58;100.00;101888.25;10400674;28;20049;-69
2022/04/14 02:29:54;;;;;;;32.38;17.90;;;;;;;8.45;100.00;101893.75;10390296;28;20061;-70
2022/04/14 02:34:54;;;;;;;35.35;18.60;;;;;;;8.36;100.00;101895.84;10389915;28;20064;-70
2022/04/14 02:39:55;;;;;;;36.05;18.35;;;;;;;8.31;100.00;101894.81;10389794;28;20046;-70
2022/04/14 02:44:55;;;;;;;38.08;20.02;;;;;;;8.32;100.00;101893.75;10389858;28;20033;-70
2022/04/14 02:49:56;;;;;;;41.97;20.70;;;;;;;8.17;100.00;101853.69;10388608;28;20030;-70
2022/04/14 02:54:56;;;;;;;47.72;22.20;;;;;;;8.35;100.00;101885.09;10388681;28;20502;-70
2022/04/14 02:59:57;;;;;;;46.58;22.98;;;;;;;8.46;100.00;101882.56;10388181;28;20026;-70
2022/04/14 03:04:58;;;;;;;40.92;20.73;;;;;;;8.52;100.00;101886.34;10388541;28;20096;-69
2022/04/14 03:09:59;;;;;;;49.67;21.77;;;;;;;8.44;100.00;101884.69;10388560;28;20444;-70
2022/04/14 03:14:59;;;;;;;41.53;21.77;;;;;;;8.36;100.00;101886.78;10388610;28;20065;-70
2022/04/14 03:20:00;;;;;;;43.03;22.63;;;;;;;8.35;100.00;101896.06;10388132;28;20426;-70
2022/04/14 03:25:04;;;;;;;43.47;21.92;;;;;;;8.28;100.00;101888.69;10386473;28;20038;-70
2022/04/14 03:30:10;;;;;;;45.28;22.08;;;;;;;8.21;100.00;101893.38;10385386;28;20137;-70
2022/04/14 03:35:11;;;;;;;45.60;23.08;;;;;;;8.13;100.00;101893.59;10387869;28;20413;-70
2022/04/14 03:40:12;;;;;;;45.47;23.85;;;;;;;7.94;100.00;101867.00;10387428;28;20044;-70
2022/04/14 03:45:12;;;;;;;53.10;24.45;;;;;;;8.04;100.00;101900.34;10386514;28;20030;-70
2022/04/14 03:50:13;;;;;;;53.33;24.98;;;;;;;8.01;100.00;101903.50;10388386;28;20053;-70
2022/04/14 03:55:13;;;;;;;52.53;26.92;;;;;;;8.07;100.00;101910.91;10387414;28;20371;-70
2022/04/14 04:00:14;;;;;;;53.92;28.33;;;;;;;8.06;100.00;101910.06;10386249;28;20046;-70
2022/04/14 04:05:14;;;;;;;52.88;29.30;;;;;;;8.11;100.00;101903.09;10385526;28;20042;-70
2022/04/14 04:10:16;;;;;;;68.85;29.40;;;;;;;8.12;100.00;101905.59;10386643;28;20069;-70
2022/04/14 04:15:16;;;;;;;59.22;30.40;;;;;;;7.97;100.00;101889.38;10386828;28;20034;-72
2022/04/14 04:20:18;;;;;;;59.45;31.17;;;;;;;7.98;100.00;101895.69;10385520;28;20045;-72
2022/04/14 04:25:19;;;;;;;66.28;32.00;;;;;;;7.89;100.00;101884.94;10369764;28;20026;-72
2022/04/14 04:30:19;;;;;;;59.67;30.35;;;;;;;7.80;100.00;101885.38;10384708;28;20057;-72
2022/04/14 04:35:20;;;;;;;69.40;31.55;;;;;;;7.66;100.00;101898.22;10385319;28;20057;-72
2022/04/14 04:40:21;;;;;;;66.68;34.53;;;;;;;7.60;100.00;101908.13;10386074;28;20065;-72
2022/04/14 04:45:22;;;;;;;70.78;35.40;;;;;;;7.49;100.00;101881.38;10386514;28;20046;-72
2022/04/14 04:50:22;;;;;;;69.82;36.95;;;;;;;7.53;100.00;101892.75;10398375;28;20064;-72
2022/04/14 04:55:23;;;;;;;69.80;35.72;;;;;;;7.51;100.00;101900.34;10427141;28;20041;-72
2022/04/14 05:00:23;;;;;;;69.78;35.15;;;;;;;7.52;100.00;101907.50;10425918;28;20034;-72
2022/04/14 05:05:24;;;;;;;78.50;36.95;;;;;;;7.49;100.00;101903.28;10425752;28;20068;-72
2022/04/14 05:10:24;;;;;;;82.38;39.92;;;;;;;7.45;100.00;101919.28;10426463;28;20056;-73
2022/04/14 05:15:25;;;;;;;85.75;42.13;;;;;;;7.47;100.00;101927.31;10431121;28;20029;-72
2022/04/14 05:20:25;;;;;;;82.15;39.22;;;;;;;7.40;100.00;101927.31;10434957;28;20041;-72
2022/04/14 05:25:26;;;;;;;83.40;41.25;;;;;;;7.48;100.00;101937.19;10434224;28;20037;-72
2022/04/14 05:30:26;;;;;;;78.25;39.80;;;;;;;7.45;100.00;101951.34;10432522;28;20041;-72
2022/04/14 05:35:27;;;;;;;84.72;41.72;;;;;;;7.48;100.00;101961.88;10433366;28;20041;-72
2022/04/14 05:40:27;;;;;;;82.30;42.28;;;;;;;7.56;100.00;101958.09;10431786;28;20125;-73
2022/04/14 05:45:28;;;;;;;97.90;47.97;;;;;;;7.67;100.00;101965.72;10433319;28;20038;-72
2022/04/14 05:50:28;;;;;;;99.68;49.85;;;;;;;7.94;100.00;101965.72;10432841;28;20038;-72
2022/04/14 05:55:29;;;;;;;99.03;48.88;;;;;;;8.24;100.00;101968.91;10432776;28;20041;-72
2022/04/14 06:00:33;;;;;;;91.72;47.97;;;;;;;8.43;100.00;101975.44;10419144;28;20038;-72
2022/04/14 06:05:34;;;;;;;90.82;47.13;;;;;;;8.65;100.00;101976.88;10388950;28;20497;-72
2022/04/14 06:10:35;;;;;;;81.10;43.22;;;;;;;8.89;100.00;101982.75;10389550;28;20043;-72
2022/04/14 06:15:36;;;;;;;76.72;42.38;;;;;;;9.16;100.00;101977.19;10388796;28;20390;-72
2022/04/14 06:20:36;;;;;;;67.28;38.53;;;;;;;9.31;100.00;101966.72;10391142;28;20037;-72
2022/04/14 06:25:36;;;;;;;64.80;36.40;;;;;;;9.47;100.00;101965.38;10390404;28;20072;-72
2022/04/14 06:30:37;;;;;;;56.97;34.58;;;;;;;9.65;100.00;101946.25;10389793;28;20026;-72
2022/04/14 06:35:37;;;;;;;60.35;33.85;;;;;;;9.81;100.00;101966.84;10388177;28;20054;-72
2022/04/14 06:40:38;;;;;;;58.45;33.92;;;;;;;10.09;100.00;101968.34;10387344;28;20056;-72
2022/04/14 06:45:39;;;;;;;54.47;32.28;;;;;;;10.39;100.00;101959.41;10389375;28;20104;-71
2022/04/14 06:50:40;;;;;;;55.90;29.63;;;;;;;10.34;100.00;101960.09;10389012;28;20497;-71
2022/04/14 06:55:42;;;;;;;52.40;29.90;;;;;;;10.51;100.00;101963.09;10390168;28;20034;-71
2022/04/14 07:00:43;;;;;;;52.63;29.20;;;;;;;10.83;100.00;101968.47;10449361;28;20037;-72
2022/04/14 07:05:43;;;;;;;43.53;26.02;;;;;;;11.09;100.00;101973.69;10448433;28;20025;-72
2022/04/14 07:10:44;;;;;;;45.55;25.10;;;;;;;11.19;100.00;101980.56;10450029;28;20029;-72
2022/04/14 07:15:45;;;;;;;35.08;21.10;;;;;;;11.31;100.00;101971.28;10448692;28;20036;-71
2022/04/14 07:20:46;;;;;;;30.65;20.48;;;;;;;11.46;100.00;101976.38;10450972;28;20050;-73
2022/04/14 07:25:47;;;;;;;36.30;23.10;;;;;;;11.64;100.00;101974.66;10428964;28;20041;-72
2022/04/14 07:30:48;;;;;;;32.63;21.23;;;;;;;11.88;100.00;101981.94;10445093;28;20034;-72
2022/04/14 07:35:50;;;;;;;29.75;19.60;;;;;;;12.00;100.00;101981.16;10447156;28;20041;-72
2022/04/14 07:40:51;;;;;;;32.65;18.73;;;;;;;12.20;100.00;101973.38;10447668;28;20117;-72
2022/04/14 07:45:51;;;;;;;36.35;20.15;;;;;;;12.48;100.00;101969.06;10449159;28;20051;-72
2022/04/14 07:50:51;;;;;;;31.40;17.38;;;;;;;12.63;100.00;101977.72;10448426;28;20048;-70
2022/04/14 07:55:52;;;;;;;27.73;18.25;;;;;;;12.68;100.00;101952.94;10448478;28;20583;-72
2022/04/14 08:00:52;;;;;;;27.08;17.20;;;;;;;12.96;100.00;101976.22;10445127;28;20025;-72
2022/04/14 08:08:43;;;;;;;22.50;15.95;;;;;;;13.12;100.00;101981.00;10493699;28;20411;-71
2022/04/14 08:13:43;;;;;;;22.92;15.38;;;;;;;13.30;100.00;101976.41;10470364;28;20508;-72
2022/04/14 08:18:44;;;;;;;20.63;14.05;;;;;;;13.26;100.00;101978.78;10470320;28;20021;-72
2022/04/14 08:23:44;;;;;;;22.08;13.88;;;;;;;13.45;100.00;101973.09;10463379;28;20021;-72
2022/04/14 08:28:45;;;;;;;18.58;12.48;;;;;;;13.47;100.00;101955.16;10468326;28;20025;-72
2022/04/14 08:33:46;;;;;;;17.38;12.10;;;;;;;13.68;100.00;101983.22;10454539;28;20022;-71
2022/04/14 08:38:47;;;;;;;17.58;13.77;;;;;;;13.90;100.00;101975.88;10427678;28;20025;-71
2022/04/14 08:44:09;;;;;;;17.35;12.90;;;;;;;13.96;100.00;101978.75;10428197;28;20283;-72
2022/04/14 08:49:10;;;;;;;21.58;13.93;;;;;;;14.17;100.00;101977.16;10427294;28;20026;-72
2022/04/14 08:54:13;;;;;;;19.55;13.00;;;;;;;14.21;100.00;101968.09;10427481;28;20022;-71
2022/04/14 08:59:15;;;;;;;21.08;13.40;;;;;;;14.56;100.00;101983.63;10388185;28;20041;-72
2022/04/14 09:04:15;;;;;;;16.27;11.45;;;;;;;14.84;100.00;101968.81;10370255;28;20045;-71
2022/04/14 09:09:16;;;;;;;15.90;11.13;;;;;;;15.01;100.00;101963.19;10370221;28;20097;-71
2022/04/14 09:14:16;;;;;;;20.45;12.85;;;;;;;15.20;100.00;101962.88;10386572;28;20030;-71
2022/04/14 09:19:17;;;;;;;16.60;13.02;;;;;;;15.25;100.00;101962.91;10363103;28;20034;-72
2022/04/14 09:24:17;;;;;;;19.75;13.27;;;;;;;15.39;100.00;101952.25;10358196;28;20034;-72
2022/04/14 09:29:18;;;;;;;19.67;14.00;;;;;;;15.61;100.00;101946.69;10359737;28;20494;-72
2022/04/14 09:34:48;;;;;;;21.30;14.70;;;;;;;15.84;100.00;101953.88;10342047;28;20038;-72
2022/04/14 09:39:53;;;;;;;18.73;13.65;;;;;;;15.98;100.00;101940.38;10358802;28;20081;-71
2022/04/14 09:44:54;;;;;;;17.52;12.90;;;;;;;16.02;100.00;101935.97;10355450;28;20081;-72
2022/04/14 09:49:54;;;;;;;16.80;12.63;;;;;;;15.78;100.00;101944.66;10354533;28;20065;-71
2022/04/14 09:55:08;;;;;;;16.80;11.80;;;;;;;15.39;100.00;101950.31;10355369;28;20022;-71
2022/04/14 10:00:09;;;;;;;19.95;13.32;;;;;;;15.80;100.00;101953.56;10356226;28;20034;-72
2022/04/14 10:05:10;;;;;;;15.77;10.98;;;;;;;16.28;100.00;101957.28;10395080;28;20058;-73
2022/04/14 10:10:20;;;;;;;16.38;12.18;;;;;;;16.53;100.00;101964.13;10395428;28;20050;-72
2022/04/14 10:15:21;;;;;;;17.17;10.90;;;;;;;16.72;100.00;101958.97;10419313;28;20045;-72
2022/04/14 10:20:25;;;;;;;17.00;10.35;;;;;;;17.53;100.00;101961.28;10417061;28;20022;-73
2022/04/14 10:25:25;;;;;;;13.90;9.98;;;;;;;17.84;96.62;101960.50;10417274;28;20034;-73
2022/04/14 10:30:26;;;;;;;13.80;11.20;;;;;;;17.26;96.21;101963.41;10432977;28;20061;-73
2022/04/14 10:35:29;;;;;;;10.05;7.50;;;;;;;16.91;95.21;101968.56;10433742;28;20128;-74
2022/04/14 10:40:30;;;;;;;9.98;7.53;;;;;;;16.67;97.47;101970.88;10429748;28;20034;-73
2022/04/14 10:45:32;;;;;;;10.00;6.05;;;;;;;16.41;97.94;101941.25;10360245;28;20033;-73
2022/04/14 10:50:33;;;;;;;11.75;4.88;;;;;;;17.35;96.33;101967.34;10376528;28;20029;-73
2022/04/14 10:55:35;;;;;;;7.47;5.25;;;;;;;17.53;91.86;101958.50;10381526;28;20045;-73
2022/04/14 11:00:36;;;;;;;8.18;4.63;;;;;;;16.89;91.32;101958.81;10351654;28;20111;-75
2022/04/14 11:05:49;;;;;;;6.47;4.13;;;;;;;16.42;93.63;101976.28;10350498;28;20134;-74
2022/04/14 11:11:05;;;;;;;5.97;4.50;;;;;;;17.10;90.27;101960.56;10350565;28;20090;-74
2022/04/14 11:16:47;;;;;;;7.53;4.85;;;;;;;17.50;89.83;101949.84;10347843;28;20046;-73
2022/04/14 11:22:04;;;;;;;6.53;3.42;;;;;;;18.22;87.22;101953.56;10350612;28;20115;-74
2022/04/14 11:27:21;;;;;;;10.70;3.85;;;;;;;17.78;84.10;101912.31;10349639;28;20030;-74
2022/04/14 11:32:38;;;;;;;5.85;3.50;;;;;;;17.50;84.70;101947.88;10350874;28;20045;-76
2022/04/14 11:37:46;;;;;;;8.85;5.55;;;;;;;18.38;87.13;101957.19;10388534;28;20494;-74
2022/04/14 11:42:50;;;;;;;9.98;5.60;;;;;;;18.49;86.93;101960.78;10388642;28;20033;-74
2022/04/14 11:47:54;;;;;;;7.63;5.40;;;;;;;18.00;88.28;101966.94;10380945;28;20041;-74
2022/04/14 11:52:59;;;;;;;9.05;6.45;;;;;;;17.81;92.16;101984.16;10348799;28;20019;-77
2022/04/14 11:58:03;;;;;;;14.13;8.68;;;;;;;17.52;97.45;101998.56;10347636;28;20026;-76
2022/04/14 12:03:03;;;;;;;11.40;7.47;;;;;;;17.48;99.16;101993.81;10347573;28;20041;-74
2022/04/14 12:08:07;;;;;;;9.93;6.30;;;;;;;18.58;93.72;101984.16;10346437;28;20081;-75
2022/04/14 12:13:08;;;;;;;8.02;4.43;;;;;;;20.09;83.18;101956.13;10348208;28;20388;-77
2022/04/14 12:18:10;;;;;;;7.30;4.88;;;;;;;20.10;81.41;101946.63;10346470;28;20177;-75
2022/04/14 12:23:11;;;;;;;7.13;4.13;;;;;;;19.46;79.13;101954.03;10347272;28;20061;-76
2022/04/14 12:28:11;;;;;;;6.55;4.15;;;;;;;19.02;80.51;101965.97;10347064;28;20038;-76
2022/04/14 12:33:11;;;;;;;9.32;4.15;;;;;;;18.58;84.19;101978.59;10346738;28;20034;-78
2022/04/14 12:38:19;;;;;;;6.72;3.45;;;;;;;18.44;83.80;101986.72;10363346;28;20052;-77
2022/04/14 12:43:21;;;;;;;9.40;4.55;;;;;;;19.05;80.48;101982.97;10364052;28;20038;-78
2022/04/14 12:48:34;;;;;;;7.88;5.20;;;;;;;18.69;82.98;101988.63;10397336;28;20052;-77
2022/04/14 12:53:35;;;;;;;8.98;5.35;;;;;;;18.62;83.23;101990.88;10417582;28;20028;-78
2022/04/14 12:58:35;;;;;;;25.38;8.27;;;;;;;18.64;84.93;101988.63;10435923;28;20036;-78
2022/04/14 13:03:51;;;;;;;11.23;5.43;;;;;;;18.54;85.23;101971.91;10360729;28;20092;-77
2022/04/14 13:08:51;;;;;;;7.65;5.35;;;;;;;18.45;86.22;102007.06;10395134;28;20076;-77
2022/04/14 13:13:52;;;;;;;9.60;6.45;;;;;;;18.15;89.11;102019.91;10431798;28;20042;-78
2022/04/14 13:18:52;;;;;;;10.95;6.03;;;;;;;17.72;92.79;102022.03;10432820;28;20037;-76
2022/04/14 13:23:53;;;;;;;10.05;6.13;;;;;;;17.29;93.90;102021.31;10417707;28;20037;-76
2022/04/14 13:28:53;;;;;;;16.58;6.07;;;;;;;17.02;96.92;102025.09;10433430;28;20037;-76
2022/04/14 13:33:54;;;;;;;12.23;6.85;;;;;;;16.65;99.72;102027.88;10435010;28;20037;-78
2022/04/14 13:38:54;;;;;;;11.13;7.93;;;;;;;16.45;100.00;102028.56;10434291;28;20033;-78
2022/04/14 13:43:55;;;;;;;9.73;6.22;;;;;;;16.46;100.00;102033.03;10387384;28;20030;-78
2022/04/14 13:48:55;;;;;;;14.32;7.95;;;;;;;16.25;100.00;102035.63;10351243;28;20038;-78
2022/04/14 13:53:56;;;;;;;11.68;8.05;;;;;;;16.07;100.00;102044.34;10353399;28;20097;-73
2022/04/14 13:58:56;;;;;;;14.25;8.18;;;;;;;15.98;100.00;102040.34;10351704;28;20041;-74
2022/04/14 14:03:57;;;;;;;13.05;9.20;;;;;;;15.94;100.00;102006.72;10351453;28;20030;-73
2022/04/14 14:08:57;;;;;;;14.82;8.32;;;;;;;16.07;100.00;102049.91;10352226;28;20027;-73
2022/04/14 14:13:58;;;;;;;20.23;10.05;;;;;;;16.23;100.00;102051.72;10349948;28;20034;-73
2022/04/14 14:18:59;;;;;;;13.98;8.20;;;;;;;16.84;100.00;102040.25;10350820;28;20027;-73
2022/04/14 14:24:00;;;;;;;12.57;7.50;;;;;;;17.53;100.00;102053.16;10349192;28;20034;-75
2022/04/14 14:29:00;;;;;;;14.63;8.13;;;;;;;18.05;100.00;102053.34;10350963;28;20042;-72
2022/04/14 14:34:01;;;;;;;9.45;6.97;;;;;;;18.19;96.95;102036.88;10352444;28;20064;-73
2022/04/14 14:39:01;;;;;;;11.85;5.70;;;;;;;19.28;95.99;102036.47;10350601;28;20034;-73
2022/04/14 14:44:02;;;;;;;13.02;6.40;;;;;;;19.69;90.36;102025.94;10349694;28;20049;-73
2022/04/14 14:49:02;;;;;;;9.57;5.10;;;;;;;20.07;85.84;102036.63;10344459;28;20041;-73
2022/04/14 14:54:03;;;;;;;9.57;5.50;;;;;;;20.34;83.12;102033.38;10430763;28;20021;-74
2022/04/14 14:59:12;;;;;;;7.93;5.20;;;;;;;21.06;81.96;102047.50;10335903;28;20026;-75
2022/04/14 15:04:13;;;;;;;13.63;5.13;;;;;;;20.47;80.24;102048.66;10350565;28;20073;-74
2022/04/14 15:09:13;;;;;;;8.75;4.45;;;;;;;20.53;78.55;102055.88;10363728;28;20519;-75
2022/04/14 15:14:14;;;;;;;4.70;3.78;;;;;;;21.49;74.60;102033.59;10409774;28;20049;-75
2022/04/14 15:19:15;;;;;;;6.00;3.13;;;;;;;20.96;73.28;102039.25;10430377;28;20021;-75
2022/04/14 15:24:15;;;;;;;8.00;3.13;;;;;;;21.48;72.32;102037.53;10429766;28;20025;-74
2022/04/14 15:29:16;;;;;;;6.50;2.75;;;;;;;22.13;68.28;102030.44;10429575;28;20385;-74
2022/04/14 15:34:17;;;;;;;4.32;1.90;;;;;;;21.25;70.32;102035.53;10431740;28;20405;-74
2022/04/14 15:39:17;;;;;;;4.03;1.98;;;;;;;21.38;67.16;102032.03;10429606;28;20033;-74
2022/04/14 15:44:18;;;;;;;3.92;1.80;;;;;;;21.56;67.59;102039.66;10361741;28;20031;-74
2022/04/14 15:49:18;;;;;;;6.95;2.38;;;;;;;21.45;66.49;102038.13;10349263;28;20041;-75
2022/04/14 15:54:19;;;;;;;4.78;1.88;;;;;;;21.36;65.79;102034.31;10330965;28;20037;-75
2022/04/14 15:59:19;;;;;;;4.13;2.33;;;;;;;21.65;63.83;101972.56;10346985;28;20038;-75
2022/04/14 16:04:20;;;;;;;4.35;2.67;;;;;;;20.87;67.32;102035.41;10347998;28;20034;-74
2022/04/14 16:09:20;;;;;;;5.78;2.65;;;;;;;21.73;64.58;102050.38;10330397;28;20042;-76
2022/04/14 16:14:21;;;;;;;6.40;2.75;;;;;;;21.14;65.05;102049.66;10347479;28;20046;-76
2022/04/14 16:19:21;;;;;;;3.97;1.98;;;;;;;21.27;64.10;102047.28;10347122;28;20053;-75
2022/04/14 16:24:22;;;;;;;4.03;1.80;;;;;;;20.01;67.27;102063.81;10330860;28;20046;-75
2022/04/14 16:29:22;;;;;;;3.15;1.92;;;;;;;20.06;66.69;102066.56;10337092;28;20541;-76
2022/04/14 16:34:30;;;;;;;7.10;3.20;;;;;;;20.26;67.46;102070.34;10340134;28;20484;-76
2022/04/14 16:39:30;;;;;;;5.38;2.97;;;;;;;20.29;68.42;102103.31;10435320;28;20040;-76
2022/04/14 16:44:31;;;;;;;7.68;4.32;;;;;;;18.86;72.37;102119.47;10367741;28;20057;-75
2022/04/14 16:49:31;;;;;;;10.93;5.65;;;;;;;17.69;75.97;102140.41;10354588;28;20502;-75
2022/04/14 16:54:32;;;;;;;11.23;5.30;;;;;;;16.59;82.20;102149.31;10338135;28;20038;-76
2022/04/14 16:59:32;;;;;;;11.75;6.57;;;;;;;15.18;90.32;102162.03;10338193;28;20379;-74
2022/04/14 17:04:33;;;;;;;12.07;6.00;;;;;;;14.41;96.44;102163.47;10402982;28;20052;-75
2022/04/14 17:09:34;;;;;;;13.18;6.28;;;;;;;14.17;99.61;102135.84;10401203;28;20038;-75
2022/04/14 17:14:34;;;;;;;8.77;6.18;;;;;;;14.19;100.00;102179.94;10408667;28;20038;-75
2022/04/14 17:19:34;;;;;;;11.48;6.63;;;;;;;13.92;100.00;102175.78;10346825;28;20030;-75
2022/04/14 17:24:35;;;;;;;9.90;6.78;;;;;;;13.48;100.00;102182.88;10367538;28;20049;-75
2022/04/14 17:29:36;;;;;;;10.32;6.05;;;;;;;12.97;100.00;102187.97;10361102;28;20030;-75
2022/04/14 17:34:36;;;;;;;8.98;5.65;;;;;;;12.52;100.00;102208.66;10361340;28;20038;-74
2022/04/14 17:39:37;;;;;;;14.70;6.00;;;;;;;11.79;100.00;102176.47;10359908;28;20030;-75
2022/04/14 17:44:37;;;;;;;15.63;6.50;;;;;;;11.50;100.00;102206.50;10376793;28;20057;-75
2022/04/14 17:49:38;;;;;;;12.15;6.32;;;;;;;11.09;100.00;102227.22;10394528;28;20045;-74
2022/04/14 17:54:40;;;;;;;17.85;7.32;;;;;;;10.56;100.00;102232.28;10415212;28;20440;-75
2022/04/14 17:59:41;;;;;;;14.35;6.60;;;;;;;10.27;100.00;102235.38;10397825;28;20469;-74
2022/04/14 18:04:42;;;;;;;12.70;7.28;;;;;;;9.89;100.00;102194.03;10391844;28;20034;-74
2022/04/14 18:09:42;;;;;;;13.32;7.18;;;;;;;9.78;100.00;102234.06;10375777;28;20034;-75
2022/04/14 18:14:43;;;;;;;20.75;6.65;;;;;;;9.60;100.00;102240.25;10375632;28;20172;-75
2022/04/14 18:19:43;;;;;;;18.55;7.60;;;;;;;9.56;100.00;102233.47;10391325;28;20033;-74
2022/04/14 18:24:44;;;;;;;18.60;6.20;;;;;;;9.57;100.00;102240.69;10375079;28;20041;-74
2022/04/14 18:29:44;;;;;;;15.32;5.80;;;;;;;9.45;100.00;102253.38;10391430;28;20038;-74
2022/04/14 18:34:45;;;;;;;7.03;4.28;;;;;;;9.22;100.00;102237.31;10374655;28;20053;-75
2022/04/14 18:39:45;;;;;;;12.55;6.32;;;;;;;9.21;100.00;102263.13;10373942;28;20052;-75
2022/04/14 18:44:46;;;;;;;17.58;5.38;;;;;;;9.12;100.00;102270.72;10390619;28;20029;-75
2022/04/14 18:49:46;;;;;;;7.53;4.18;;;;;;;9.11;100.00;102290.16;10389296;28;20037;-75
2022/04/14 18:54:46;;;;;;;11.52;4.18;;;;;;;9.02;100.00;102292.28;10390162;28;20034;-75
2022/04/14 18:59:47;;;;;;;14.60;4.47;;;;;;;8.92;100.00;102309.16;10389109;28;20044;-75
2022/04/14 19:04:47;;;;;;;14.00;4.70;;;;;;;9.00;100.00;102308.97;10390008;28;20050;-75
2022/04/14 19:09:48;;;;;;;11.55;4.63;;;;;;;8.92;100.00;102319.31;10390760;28;20056;-74
2022/04/14 19:14:48;;;;;;;9.93;4.85;;;;;;;8.83;100.00;102329.63;10389193;28;20073;-75
2022/04/14 19:19:49;;;;;;;13.88;5.63;;;;;;;8.73;100.00;102315.47;10390441;28;20038;-75
2022/04/14 19:24:50;;;;;;;10.35;5.07;;;;;;;8.86;100.00;102331.97;10372604;28;20080;-74
2022/04/14 19:29:50;;;;;;;12.13;4.97;;;;;;;8.80;100.00;102327.28;10389610;28;20104;-75
2022/04/14 19:34:51;;;;;;;14.88;5.05;;;;;;;8.68;100.00;102325.16;10389885;28;20080;-75
2022/04/14 19:39:51;;;;;;;15.00;5.40;;;;;;;8.71;100.00;102328.53;10389239;28;20026;-74
2022/04/14 19:44:52;;;;;;;12.88;5.43;;;;;;;8.64;100.00;102326.63;10388488;28;20048;-74
2022/04/14 19:49:52;;;;;;;11.48;5.40;;;;;;;8.58;100.00;102321.97;10388228;28;20532;-74
2022/04/14 19:54:53;;;;;;;11.25;6.10;;;;;;;8.40;100.00;102307.91;10388458;28;20030;-74
2022/04/14 19:59:54;;;;;;;15.93;5.95;;;;;;;8.57;100.00;102344.94;10387123;28;20429;-75
2022/04/14 20:04:55;;;;;;;12.27;6.13;;;;;;;8.58;100.00;102341.16;10387728;28;20299;-74
2022/04/14 20:09:55;;;;;;;14.63;6.18;;;;;;;8.55;100.00;102325.09;10370499;28;20187;-75
2022/04/14 20:14:57;;;;;;;13.75;5.45;;;;;;;8.67;100.00;102348.16;10386663;28;20041;-74
2022/04/14 20:19:58;;;;;;;14.25;5.43;;;;;;;8.58;100.00;102338.41;10386262;28;20030;-75
2022/04/14 20:25:00;;;;;;;13.38;6.60;;;;;;;8.51;100.00;102339.44;10387289;28;20057;-74
2022/04/14 20:30:01;;;;;;;10.55;3.70;;;;;;;8.38;100.00;102353.94;10387953;28;20564;-74
2022/04/14 20:35:01;;;;;;;14.88;4.63;;;;;;;8.18;100.00;102354.66;10353334;28;20038;-75
2022/04/14 20:40:03;;;;;;;15.52;4.63;;;;;;;7.96;100.00;102358.50;10387021;28;20053;-75
2022/04/14 20:45:04;;;;;;;12.73;4.88;;;;;;;7.79;100.00;102363.47;10380880;28;20046;-75
2022/04/14 20:50:05;;;;;;;15.27;5.85;;;;;;;7.58;100.00;102353.38;10331207;28;20072;-74
2022/04/14 20:55:09;;;;;;;10.23;6.05;;;;;;;7.39;100.00;102342.06;10346509;28;20041;-75
2022/04/14 21:00:11;;;;;;;14.13;6.15;;;;;;;7.45;100.00;102368.66;10348250;28;20031;-74
2022/04/14 21:05:11;;;;;;;13.52;6.30;;;;;;;7.54;100.00;102361.16;10345915;28;20097;-75
2022/04/14 21:10:12;;;;;;;16.60;6.43;;;;;;;7.65;100.00;102368.84;10347513;28;20054;-75
2022/04/14 21:15:12;;;;;;;9.77;5.80;;;;;;;7.66;100.00;102364.19;10352980;28;20037;-80
2022/04/14 21:20:13;;;;;;;11.77;5.65;;;;;;;7.91;100.00;102377.47;10354751;28;20026;-80
2022/04/14 21:25:13;;;;;;;10.40;4.82;;;;;;;7.96;100.00;102375.84;10354858;28;20034;-79
2022/04/14 21:30:14;;;;;;;8.23;4.50;;;;;;;7.93;100.00;102370.72;10353580;28;20045;-79
2022/04/14 21:35:14;;;;;;;11.35;4.65;;;;;;;7.87;100.00;102382.50;10352563;28;20038;-81
2022/04/14 21:40:15;;;;;;;10.88;5.55;;;;;;;7.97;100.00;102398.63;10354230;28;20167;-83
2022/04/14 21:45:40;;;;;;;9.77;5.00;;;;;;;7.86;100.00;102387.16;10353813;28;20035;-79
2022/04/14 21:50:36;;;;;;;12.43;5.90;;;;;;;7.73;100.00;102387.06;10352511;28;20049;-82
2022/04/14 21:55:37;;;;;;;13.80;6.40;;;;;;;7.54;100.00;102395.94;10362801;28;20045;-79
2022/04/14 22:00:48;;;;;;;12.48;6.80;;;;;;;7.33;100.00;102396.78;10389295;28;20085;-80
2022/04/14 22:05:48;;;;;;;9.63;6.85;;;;;;;7.21;100.00;102393.72;10361387;28;20043;-80
2022/04/14 22:10:49;;;;;;;12.85;7.63;;;;;;;7.08;100.00;102399.91;10352824;28;20469;-79
2022/04/14 22:15:50;;;;;;;15.07;8.30;;;;;;;6.86;100.00;102386.19;10352460;28;20042;-79
2022/04/14 22:20:50;;;;;;;23.17;10.02;;;;;;;6.84;100.00;102401.97;10350453;28;20034;-80
2022/04/14 22:25:51;;;;;;;17.05;8.65;;;;;;;6.78;100.00;102410.06;10367894;28;20034;-81
2022/04/14 22:30:51;;;;;;;14.45;8.65;;;;;;;6.65;100.00;102405.28;10350810;28;20064;-81
2022/04/14 22:35:52;;;;;;;14.20;8.52;;;;;;;6.48;100.00;102396.44;10367199;28;20038;-80
2022/04/14 22:40:52;;;;;;;13.77;9.20;;;;;;;6.49;100.00;102416.44;10348813;28;20026;-81
2022/04/14 22:45:53;;;;;;;17.38;10.05;;;;;;;6.57;100.00;102416.31;10361711;28;20069;-80